Spirit of St Louis Airport
KSUS : now visible

Airfield :











YOU CAN JOIN US ON...

 
LOGIN :

Register | Disclaimer

   EN    FR    IT 

 









Legend :    VFR   Marginal VFR   IFR   Intensive IFR   Very Intensive IFR
Visi :
Ceiling :
>= 8 km
>= 3000ft
5 to 8 km
1000 to 3000 ft
1500m to 5 km
500 to 1000 ft
800 to 1500m
200 to 500 ft
< 800m
< 200 ft
Symbols :   Thunderstorms  Fog  Heavy snow  Heavy precipitations  Wind > 20 kt






- Airport Elevation : 463 ft


KSUS - Spirit of St Louis

CURRENT METAR :
  • 031254Z COR 00000KT 6SM HZ CLR 19/17 A3011 RMK AO2 SLP189 T01940167

EXPIRED METARs :
  • 031154Z 00000KT 6SM MIFG BR CLR 16/16 A3010 RMK AO2 SLP187 T01610156 10183 20156 50004
  • 031151Z 00000KT 6SM MIFG BR CLR 16/15 A3010 RMK AO2
  • 031139Z 00000KT 1/2SM R08R/2400VP6000FT MIFG BR CLR 16/15 A3010 RMK AO2 T01610150
  • 031129Z 00000KT 1 1/4SM R08R/5000VP6000FT MIFG BR CLR 16/15 A3010 RMK AO2 T01610150
  • 031117Z 00000KT 1/2SM R08R/4000VP6000FT MIFG BR CLR 16/15 A3009 RMK AO2 VIS M1/4V5 T01560150
  • 031054Z 00000KT 6SM R08R/2800VP6000FT MIFG BR CLR 16/14 A3009 RMK AO2 SLP184 T01560144
  • 031049Z 25003KT 6SM R08R/4500VP6000FT BR CLR 16/15 A3009 RMK AO2

TAF KSUS
Valid from the 03 at 12:00 until the 04 at 12:00 UTC


031120Z 0312/0412 00000KT 6SM BR SCT090
TEMPO 0312/0313 1SM BR
FM031300 00000KT P6SM FEW040
FM031900 03005KT P6SM BKN050
FM032300 03005KT P6SM FEW060
KZKC FIR / North America



MET'MAP, your aeronautical weather chart ! - Copyright ORBIFLY December 2007 - Disclaimer

ORBIFLY MET'MAP TEAM :

Programming & Development : Alexandra Zaïnal
Concept & original design : Baudouin d'Aumeries
Assistance for programming : Marc-Olivier Méhu
Technical & hardware support : Manuel Goepfert

Contact : metmap@orbifly.com




SOURCES & CREDITS :

   NOAA       Earth
Advisory